sensor_id;sensor_type;location;lat;lon;timestamp;P1;durP1;ratioP1;P2;durP2;ratioP2
57319;SDS011;43158;51.026;18.190;2022-11-14T00:00:07;49.00;;;38.50;;
57319;SDS011;43158;51.026;18.190;2022-11-14T00:02:35;54.20;;;41.70;;
57319;SDS011;43158;51.026;18.190;2022-11-14T00:05:01;55.20;;;39.70;;
57319;SDS011;43158;51.026;18.190;2022-11-14T00:07:29;49.10;;;37.90;;
57319;SDS011;43158;51.026;18.190;2022-11-14T00:09:58;46.70;;;36.90;;
57319;SDS011;43158;51.026;18.190;2022-11-14T00:12:24;47.00;;;37.40;;
57319;SDS011;43158;51.026;18.190;2022-11-14T00:14:50;51.20;;;38.50;;
57319;SDS011;43158;51.026;18.190;2022-11-14T00:17:18;49.30;;;39.00;;
57319;SDS011;43158;51.026;18.190;2022-11-14T00:19:44;49.20;;;39.20;;
57319;SDS011;43158;51.026;18.190;2022-11-14T00:22:10;45.30;;;34.80;;
57319;SDS011;43158;51.026;18.190;2022-11-14T00:24:36;48.00;;;38.60;;
57319;SDS011;43158;51.026;18.190;2022-11-14T00:27:02;50.00;;;38.90;;
57319;SDS011;43158;51.026;18.190;2022-11-14T00:29:29;50.40;;;40.30;;
57319;SDS011;43158;51.026;18.190;2022-11-14T00:31:54;56.50;;;43.60;;
57319;SDS011;43158;51.026;18.190;2022-11-14T00:34:21;60.20;;;47.50;;
57319;SDS011;43158;51.026;18.190;2022-11-14T00:36:47;58.20;;;43.10;;
57319;SDS011;43158;51.026;18.190;2022-11-14T00:39:13;54.90;;;39.80;;
57319;SDS011;43158;51.026;18.190;2022-11-14T00:41:40;52.70;;;40.70;;
57319;SDS011;43158;51.026;18.190;2022-11-14T00:44:06;52.50;;;40.30;;
57319;SDS011;43158;51.026;18.190;2022-11-14T00:46:33;63.10;;;43.80;;
57319;SDS011;43158;51.026;18.190;2022-11-14T00:48:59;78.20;;;55.80;;
57319;SDS011;43158;51.026;18.190;2022-11-14T00:51:25;67.40;;;52.70;;
57319;SDS011;43158;51.026;18.190;2022-11-14T00:53:52;65.60;;;50.60;;
57319;SDS011;43158;51.026;18.190;2022-11-14T00:56:18;64.90;;;52.40;;
57319;SDS011;43158;51.026;18.190;2022-11-14T00:58:44;63.20;;;47.40;;
57319;SDS011;43158;51.026;18.190;2022-11-14T01:01:11;62.40;;;48.60;;
57319;SDS011;43158;51.026;18.190;2022-11-14T01:03:37;84.60;;;66.20;;
57319;SDS011;43158;51.026;18.190;2022-11-14T01:06:04;73.00;;;55.00;;
57319;SDS011;43158;51.026;18.190;2022-11-14T01:08:31;67.20;;;52.60;;
57319;SDS011;43158;51.026;18.190;2022-11-14T01:10:57;66.30;;;51.90;;
57319;SDS011;43158;51.026;18.190;2022-11-14T01:13:25;60.60;;;49.00;;
57319;SDS011;43158;51.026;18.190;2022-11-14T01:15:51;63.00;;;49.90;;
57319;SDS011;43158;51.026;18.190;2022-11-14T01:18:20;61.90;;;49.70;;
57319;SDS011;43158;51.026;18.190;2022-11-14T01:20:47;61.30;;;47.20;;
57319;SDS011;43158;51.026;18.190;2022-11-14T01:23:14;63.00;;;50.40;;
57319;SDS011;43158;51.026;18.190;2022-11-14T01:25:41;65.80;;;49.10;;
57319;SDS011;43158;51.026;18.190;2022-11-14T01:28:08;68.30;;;53.70;;
57319;SDS011;43158;51.026;18.190;2022-11-14T01:30:36;57.30;;;44.70;;
57319;SDS011;43158;51.026;18.190;2022-11-14T01:33:03;54.50;;;41.90;;
57319;SDS011;43158;51.026;18.190;2022-11-14T01:35:30;56.20;;;41.60;;
57319;SDS011;43158;51.026;18.190;2022-11-14T01:37:56;55.70;;;46.10;;
57319;SDS011;43158;51.026;18.190;2022-11-14T01:40:22;58.40;;;45.20;;
57319;SDS011;43158;51.026;18.190;2022-11-14T01:46:04;54.40;;;42.10;;
57319;SDS011;43158;51.026;18.190;2022-11-14T01:53:47;52.30;;;40.50;;
57319;SDS011;43158;51.026;18.190;2022-11-14T01:56:18;43.40;;;36.00;;
57319;SDS011;43158;51.026;18.190;2022-11-14T01:59:01;52.00;;;40.70;;
57319;SDS011;43158;51.026;18.190;2022-11-14T02:01:30;59.40;;;45.80;;
57319;SDS011;43158;51.026;18.190;2022-11-14T02:03:59;53.80;;;44.30;;
57319;SDS011;43158;51.026;18.190;2022-11-14T02:06:28;48.90;;;40.30;;
57319;SDS011;43158;51.026;18.190;2022-11-14T02:08:55;54.00;;;42.70;;
57319;SDS011;43158;51.026;18.190;2022-11-14T02:11:22;57.30;;;42.80;;
57319;SDS011;43158;51.026;18.190;2022-11-14T02:13:48;56.80;;;43.00;;
57319;SDS011;43158;51.026;18.190;2022-11-14T02:16:15;50.90;;;39.50;;
57319;SDS011;43158;51.026;18.190;2022-11-14T02:18:42;44.20;;;37.30;;
57319;SDS011;43158;51.026;18.190;2022-11-14T02:21:08;45.70;;;34.50;;
57319;SDS011;43158;51.026;18.190;2022-11-14T02:23:33;45.20;;;36.60;;
57319;SDS011;43158;51.026;18.190;2022-11-14T02:25:59;43.80;;;34.40;;
57319;SDS011;43158;51.026;18.190;2022-11-14T02:28:26;44.10;;;35.70;;
57319;SDS011;43158;51.026;18.190;2022-11-14T02:30:52;51.20;;;37.10;;
57319;SDS011;43158;51.026;18.190;2022-11-14T02:33:18;58.60;;;42.80;;
57319;SDS011;43158;51.026;18.190;2022-11-14T02:35:44;58.80;;;42.90;;
57319;SDS011;43158;51.026;18.190;2022-11-14T02:38:10;52.20;;;38.70;;
57319;SDS011;43158;51.026;18.190;2022-11-14T02:40:37;54.90;;;43.40;;
57319;SDS011;43158;51.026;18.190;2022-11-14T02:43:03;60.40;;;46.80;;
57319;SDS011;43158;51.026;18.190;2022-11-14T02:45:30;51.40;;;40.80;;
57319;SDS011;43158;51.026;18.190;2022-11-14T02:47:56;46.10;;;38.60;;
57319;SDS011;43158;51.026;18.190;2022-11-14T02:50:22;44.30;;;35.30;;
57319;SDS011;43158;51.026;18.190;2022-11-14T02:52:49;55.30;;;43.10;;
57319;SDS011;43158;51.026;18.190;2022-11-14T02:55:19;52.70;;;44.00;;
57319;SDS011;43158;51.026;18.190;2022-11-14T02:57:46;43.00;;;34.70;;
57319;SDS011;43158;51.026;18.190;2022-11-14T03:00:12;40.00;;;31.30;;
57319;SDS011;43158;51.026;18.190;2022-11-14T03:02:39;37.50;;;29.90;;
57319;SDS011;43158;51.026;18.190;2022-11-14T03:05:05;36.50;;;27.80;;
57319;SDS011;43158;51.026;18.190;2022-11-14T03:07:32;30.10;;;26.00;;
57319;SDS011;43158;51.026;18.190;2022-11-14T03:09:58;29.00;;;23.80;;
57319;SDS011;43158;51.026;18.190;2022-11-14T03:12:24;29.90;;;25.80;;
57319;SDS011;43158;51.026;18.190;2022-11-14T03:14:50;25.10;;;22.20;;
57319;SDS011;43158;51.026;18.190;2022-11-14T03:17:16;28.40;;;24.50;;
57319;SDS011;43158;51.026;18.190;2022-11-14T03:19:43;31.40;;;25.50;;
57319;SDS011;43158;51.026;18.190;2022-11-14T03:22:09;28.40;;;24.20;;
57319;SDS011;43158;51.026;18.190;2022-11-14T03:24:35;28.70;;;22.20;;
57319;SDS011;43158;51.026;18.190;2022-11-14T03:27:01;27.20;;;23.10;;
57319;SDS011;43158;51.026;18.190;2022-11-14T03:29:27;27.00;;;22.00;;
57319;SDS011;43158;51.026;18.190;2022-11-14T03:31:53;28.20;;;22.70;;
57319;SDS011;43158;51.026;18.190;2022-11-14T03:34:19;23.70;;;21.20;;
57319;SDS011;43158;51.026;18.190;2022-11-14T03:36:46;23.70;;;20.40;;
57319;SDS011;43158;51.026;18.190;2022-11-14T03:39:11;24.70;;;20.40;;
57319;SDS011;43158;51.026;18.190;2022-11-14T03:41:38;26.00;;;18.90;;
57319;SDS011;43158;51.026;18.190;2022-11-14T03:44:04;21.30;;;19.00;;
57319;SDS011;43158;51.026;18.190;2022-11-14T03:46:30;18.60;;;16.50;;
57319;SDS011;43158;51.026;18.190;2022-11-14T03:48:56;20.50;;;18.30;;
57319;SDS011;43158;51.026;18.190;2022-11-14T03:51:22;16.00;;;12.60;;
57319;SDS011;43158;51.026;18.190;2022-11-14T03:53:48;19.70;;;17.10;;
57319;SDS011;43158;51.026;18.190;2022-11-14T03:56:14;19.70;;;17.30;;
57319;SDS011;43158;51.026;18.190;2022-11-14T03:58:41;20.40;;;18.20;;
57319;SDS011;43158;51.026;18.190;2022-11-14T04:01:07;18.10;;;15.30;;
57319;SDS011;43158;51.026;18.190;2022-11-14T04:03:33;23.90;;;19.20;;
57319;SDS011;43158;51.026;18.190;2022-11-14T04:05:59;20.40;;;18.00;;
57319;SDS011;43158;51.026;18.190;2022-11-14T04:08:25;32.90;;;24.10;;
57319;SDS011;43158;51.026;18.190;2022-11-14T04:10:51;25.00;;;19.00;;
57319;SDS011;43158;51.026;18.190;2022-11-14T04:13:17;26.20;;;20.70;;
57319;SDS011;43158;51.026;18.190;2022-11-14T04:15:43;23.60;;;19.20;;
57319;SDS011;43158;51.026;18.190;2022-11-14T04:18:09;21.40;;;18.40;;
57319;SDS011;43158;51.026;18.190;2022-11-14T04:20:34;19.00;;;16.90;;
57319;SDS011;43158;51.026;18.190;2022-11-14T04:23:00;20.30;;;18.10;;
57319;SDS011;43158;51.026;18.190;2022-11-14T04:25:26;18.00;;;15.90;;
57319;SDS011;43158;51.026;18.190;2022-11-14T04:27:52;18.70;;;16.50;;
57319;SDS011;43158;51.026;18.190;2022-11-14T04:30:19;21.30;;;17.90;;
57319;SDS011;43158;51.026;18.190;2022-11-14T04:32:45;24.00;;;18.60;;
57319;SDS011;43158;51.026;18.190;2022-11-14T04:35:12;24.80;;;19.30;;
57319;SDS011;43158;51.026;18.190;2022-11-14T04:37:39;22.60;;;17.70;;
57319;SDS011;43158;51.026;18.190;2022-11-14T04:40:05;23.40;;;18.60;;
57319;SDS011;43158;51.026;18.190;2022-11-14T04:42:32;22.30;;;18.50;;
57319;SDS011;43158;51.026;18.190;2022-11-14T04:44:58;22.90;;;18.90;;
57319;SDS011;43158;51.026;18.190;2022-11-14T04:47:24;22.70;;;18.20;;
57319;SDS011;43158;51.026;18.190;2022-11-14T04:49:50;20.80;;;17.80;;
57319;SDS011;43158;51.026;18.190;2022-11-14T04:52:17;22.20;;;17.60;;
57319;SDS011;43158;51.026;18.190;2022-11-14T04:54:43;23.70;;;19.30;;
57319;SDS011;43158;51.026;18.190;2022-11-14T04:57:09;26.80;;;20.50;;
57319;SDS011;43158;51.026;18.190;2022-11-14T04:59:35;24.10;;;20.20;;
57319;SDS011;43158;51.026;18.190;2022-11-14T05:02:01;24.80;;;18.60;;
57319;SDS011;43158;51.026;18.190;2022-11-14T05:04:27;22.80;;;19.10;;
57319;SDS011;43158;51.026;18.190;2022-11-14T05:06:53;25.10;;;19.70;;
57319;SDS011;43158;51.026;18.190;2022-11-14T05:09:19;20.10;;;17.20;;
57319;SDS011;43158;51.026;18.190;2022-11-14T05:11:45;23.10;;;17.90;;
57319;SDS011;43158;51.026;18.190;2022-11-14T05:14:11;22.60;;;19.40;;
57319;SDS011;43158;51.026;18.190;2022-11-14T05:16:37;19.00;;;16.20;;
57319;SDS011;43158;51.026;18.190;2022-11-14T05:19:03;22.50;;;19.20;;
57319;SDS011;43158;51.026;18.190;2022-11-14T05:21:30;19.30;;;16.40;;
57319;SDS011;43158;51.026;18.190;2022-11-14T05:23:56;21.40;;;19.00;;
57319;SDS011;43158;51.026;18.190;2022-11-14T05:26:22;24.70;;;18.50;;
57319;SDS011;43158;51.026;18.190;2022-11-14T05:28:48;17.60;;;15.90;;
57319;SDS011;43158;51.026;18.190;2022-11-14T05:31:14;22.20;;;18.10;;
57319;SDS011;43158;51.026;18.190;2022-11-14T05:33:44;21.80;;;18.50;;
57319;SDS011;43158;51.026;18.190;2022-11-14T05:36:12;20.50;;;16.80;;
57319;SDS011;43158;51.026;18.190;2022-11-14T05:38:39;25.00;;;17.30;;
57319;SDS011;43158;51.026;18.190;2022-11-14T05:41:06;20.00;;;17.50;;
57319;SDS011;43158;51.026;18.190;2022-11-14T05:43:33;19.60;;;15.60;;
57319;SDS011;43158;51.026;18.190;2022-11-14T05:45:59;24.20;;;18.30;;
57319;SDS011;43158;51.026;18.190;2022-11-14T05:48:27;20.40;;;17.80;;
57319;SDS011;43158;51.026;18.190;2022-11-14T05:50:54;19.90;;;17.80;;
57319;SDS011;43158;51.026;18.190;2022-11-14T05:53:24;20.40;;;15.60;;
57319;SDS011;43158;51.026;18.190;2022-11-14T05:55:51;26.10;;;18.40;;
57319;SDS011;43158;51.026;18.190;2022-11-14T05:58:18;21.90;;;17.90;;
57319;SDS011;43158;51.026;18.190;2022-11-14T06:00:44;21.40;;;17.30;;
57319;SDS011;43158;51.026;18.190;2022-11-14T06:03:10;24.70;;;21.00;;
57319;SDS011;43158;51.026;18.190;2022-11-14T06:05:38;24.00;;;19.20;;
57319;SDS011;43158;51.026;18.190;2022-11-14T06:08:04;22.10;;;19.70;;
57319;SDS011;43158;51.026;18.190;2022-11-14T06:10:31;23.40;;;19.40;;
57319;SDS011;43158;51.026;18.190;2022-11-14T06:12:59;23.90;;;17.80;;
57319;SDS011;43158;51.026;18.190;2022-11-14T06:15:25;19.00;;;17.00;;
57319;SDS011;43158;51.026;18.190;2022-11-14T06:17:52;21.20;;;18.70;;
57319;SDS011;43158;51.026;18.190;2022-11-14T06:20:18;23.00;;;18.60;;
57319;SDS011;43158;51.026;18.190;2022-11-14T06:22:45;21.80;;;18.80;;
57319;SDS011;43158;51.026;18.190;2022-11-14T06:25:11;23.90;;;18.70;;
57319;SDS011;43158;51.026;18.190;2022-11-14T06:27:37;21.10;;;16.40;;
57319;SDS011;43158;51.026;18.190;2022-11-14T06:30:03;25.30;;;19.40;;
57319;SDS011;43158;51.026;18.190;2022-11-14T06:32:30;23.80;;;17.80;;
57319;SDS011;43158;51.026;18.190;2022-11-14T06:34:56;23.00;;;19.90;;
57319;SDS011;43158;51.026;18.190;2022-11-14T06:37:23;28.20;;;16.90;;
57319;SDS011;43158;51.026;18.190;2022-11-14T06:39:49;28.40;;;19.30;;
57319;SDS011;43158;51.026;18.190;2022-11-14T06:42:15;25.10;;;18.00;;
57319;SDS011;43158;51.026;18.190;2022-11-14T06:44:41;23.50;;;19.10;;
57319;SDS011;43158;51.026;18.190;2022-11-14T06:47:13;23.20;;;19.10;;
57319;SDS011;43158;51.026;18.190;2022-11-14T06:49:39;25.90;;;20.70;;
57319;SDS011;43158;51.026;18.190;2022-11-14T06:52:05;27.50;;;20.50;;
57319;SDS011;43158;51.026;18.190;2022-11-14T06:54:31;24.50;;;18.80;;
57319;SDS011;43158;51.026;18.190;2022-11-14T06:56:58;25.20;;;21.20;;
57319;SDS011;43158;51.026;18.190;2022-11-14T06:59:25;27.20;;;20.60;;
57319;SDS011;43158;51.026;18.190;2022-11-14T07:01:51;25.20;;;21.50;;
57319;SDS011;43158;51.026;18.190;2022-11-14T07:04:20;22.90;;;19.70;;
57319;SDS011;43158;51.026;18.190;2022-11-14T07:06:46;26.70;;;19.10;;
57319;SDS011;43158;51.026;18.190;2022-11-14T07:09:15;25.30;;;22.40;;
57319;SDS011;43158;51.026;18.190;2022-11-14T07:11:41;28.70;;;21.50;;
57319;SDS011;43158;51.026;18.190;2022-11-14T07:14:09;22.60;;;19.20;;
57319;SDS011;43158;51.026;18.190;2022-11-14T07:16:35;28.70;;;22.90;;
57319;SDS011;43158;51.026;18.190;2022-11-14T07:19:03;24.60;;;21.20;;
57319;SDS011;43158;51.026;18.190;2022-11-14T07:21:30;27.40;;;21.80;;
57319;SDS011;43158;51.026;18.190;2022-11-14T07:23:56;25.40;;;21.10;;
57319;SDS011;43158;51.026;18.190;2022-11-14T07:26:23;25.40;;;20.80;;
57319;SDS011;43158;51.026;18.190;2022-11-14T07:28:50;23.00;;;19.70;;
57319;SDS011;43158;51.026;18.190;2022-11-14T07:31:18;22.60;;;18.40;;
57319;SDS011;43158;51.026;18.190;2022-11-14T07:33:45;22.80;;;20.40;;
57319;SDS011;43158;51.026;18.190;2022-11-14T07:36:12;23.30;;;20.90;;
57319;SDS011;43158;51.026;18.190;2022-11-14T07:38:38;22.30;;;20.00;;
57319;SDS011;43158;51.026;18.190;2022-11-14T07:41:07;22.30;;;20.00;;
57319;SDS011;43158;51.026;18.190;2022-11-14T07:43:34;20.40;;;18.40;;
57319;SDS011;43158;51.026;18.190;2022-11-14T07:46:01;20.60;;;17.00;;
57319;SDS011;43158;51.026;18.190;2022-11-14T07:48:29;17.50;;;15.60;;
57319;SDS011;43158;51.026;18.190;2022-11-14T07:50:58;18.50;;;16.70;;
57319;SDS011;43158;51.026;18.190;2022-11-14T07:53:25;18.20;;;15.40;;
57319;SDS011;43158;51.026;18.190;2022-11-14T07:55:52;16.80;;;15.10;;
57319;SDS011;43158;51.026;18.190;2022-11-14T07:58:18;18.40;;;14.50;;
57319;SDS011;43158;51.026;18.190;2022-11-14T08:00:44;18.30;;;15.60;;
57319;SDS011;43158;51.026;18.190;2022-11-14T08:03:12;15.60;;;14.00;;
57319;SDS011;43158;51.026;18.190;2022-11-14T08:05:38;15.80;;;14.30;;
57319;SDS011;43158;51.026;18.190;2022-11-14T08:08:04;15.70;;;14.10;;
57319;SDS011;43158;51.026;18.190;2022-11-14T08:10:34;16.80;;;15.20;;
57319;SDS011;43158;51.026;18.190;2022-11-14T08:13:02;16.80;;;14.90;;
57319;SDS011;43158;51.026;18.190;2022-11-14T08:15:29;18.20;;;15.80;;
57319;SDS011;43158;51.026;18.190;2022-11-14T08:17:56;18.60;;;16.30;;
57319;SDS011;43158;51.026;18.190;2022-11-14T08:20:23;17.50;;;15.50;;
57319;SDS011;43158;51.026;18.190;2022-11-14T08:23:00;16.80;;;15.20;;
57319;SDS011;43158;51.026;18.190;2022-11-14T08:25:29;17.50;;;15.80;;
57319;SDS011;43158;51.026;18.190;2022-11-14T08:27:55;15.70;;;14.20;;
57319;SDS011;43158;51.026;18.190;2022-11-14T08:30:22;17.30;;;15.60;;
57319;SDS011;43158;51.026;18.190;2022-11-14T08:32:48;16.60;;;14.90;;
57319;SDS011;43158;51.026;18.190;2022-11-14T08:35:15;16.80;;;15.10;;
57319;SDS011;43158;51.026;18.190;2022-11-14T08:37:41;14.60;;;13.10;;
57319;SDS011;43158;51.026;18.190;2022-11-14T08:40:08;15.90;;;13.00;;
57319;SDS011;43158;51.026;18.190;2022-11-14T08:42:35;16.20;;;14.50;;
57319;SDS011;43158;51.026;18.190;2022-11-14T08:45:02;14.20;;;12.70;;
57319;SDS011;43158;51.026;18.190;2022-11-14T08:47:28;16.60;;;14.90;;
57319;SDS011;43158;51.026;18.190;2022-11-14T08:49:55;22.50;;;15.70;;
57319;SDS011;43158;51.026;18.190;2022-11-14T08:52:24;15.90;;;14.30;;
57319;SDS011;43158;51.026;18.190;2022-11-14T08:54:50;16.10;;;14.40;;
57319;SDS011;43158;51.026;18.190;2022-11-14T08:57:17;16.00;;;14.20;;
57319;SDS011;43158;51.026;18.190;2022-11-14T08:59:43;16.40;;;14.80;;
57319;SDS011;43158;51.026;18.190;2022-11-14T09:02:10;15.90;;;14.30;;
57319;SDS011;43158;51.026;18.190;2022-11-14T09:04:38;16.70;;;15.00;;
57319;SDS011;43158;51.026;18.190;2022-11-14T09:07:14;16.30;;;14.70;;
57319;SDS011;43158;51.026;18.190;2022-11-14T09:09:40;13.90;;;12.60;;
57319;SDS011;43158;51.026;18.190;2022-11-14T09:12:07;15.90;;;14.30;;
57319;SDS011;43158;51.026;18.190;2022-11-14T09:14:33;16.30;;;14.90;;
57319;SDS011;43158;51.026;18.190;2022-11-14T09:17:04;16.20;;;14.50;;
57319;SDS011;43158;51.026;18.190;2022-11-14T09:19:31;16.50;;;14.70;;
57319;SDS011;43158;51.026;18.190;2022-11-14T09:21:57;16.30;;;14.70;;
57319;SDS011;43158;51.026;18.190;2022-11-14T09:24:23;14.50;;;13.10;;
57319;SDS011;43158;51.026;18.190;2022-11-14T09:26:50;16.20;;;14.40;;
57319;SDS011;43158;51.026;18.190;2022-11-14T09:29:17;17.10;;;15.40;;
57319;SDS011;43158;51.026;18.190;2022-11-14T09:31:47;18.40;;;16.60;;
57319;SDS011;43158;51.026;18.190;2022-11-14T09:34:14;17.50;;;15.80;;
57319;SDS011;43158;51.026;18.190;2022-11-14T09:36:41;18.20;;;15.50;;
57319;SDS011;43158;51.026;18.190;2022-11-14T09:39:07;18.00;;;16.10;;
57319;SDS011;43158;51.026;18.190;2022-11-14T09:41:43;16.10;;;14.60;;
57319;SDS011;43158;51.026;18.190;2022-11-14T09:44:31;17.00;;;15.30;;
57319;SDS011;43158;51.026;18.190;2022-11-14T09:47:13;17.60;;;15.90;;
57319;SDS011;43158;51.026;18.190;2022-11-14T09:49:42;18.10;;;16.30;;
57319;SDS011;43158;51.026;18.190;2022-11-14T09:52:24;17.10;;;15.30;;
57319;SDS011;43158;51.026;18.190;2022-11-14T09:54:58;17.40;;;15.80;;
57319;SDS011;43158;51.026;18.190;2022-11-14T09:57:28;13.40;;;12.10;;
57319;SDS011;43158;51.026;18.190;2022-11-14T09:59:56;16.70;;;15.10;;
57319;SDS011;43158;51.026;18.190;2022-11-14T10:05:25;16.10;;;14.60;;
57319;SDS011;43158;51.026;18.190;2022-11-14T10:10:54;15.80;;;14.30;;
57319;SDS011;43158;51.026;18.190;2022-11-14T10:16:13;16.90;;;15.30;;
57319;SDS011;43158;51.026;18.190;2022-11-14T10:18:50;16.50;;;14.80;;
57319;SDS011;43158;51.026;18.190;2022-11-14T10:21:45;15.30;;;13.70;;
57319;SDS011;43158;51.026;18.190;2022-11-14T10:27:21;16.70;;;15.10;;
57319;SDS011;43158;51.026;18.190;2022-11-14T10:30:23;16.00;;;14.50;;
57319;SDS011;43158;51.026;18.190;2022-11-14T10:35:29;16.60;;;15.00;;
57319;SDS011;43158;51.026;18.190;2022-11-14T10:38:02;20.60;;;18.60;;
57319;SDS011;43158;51.026;18.190;2022-11-14T10:40:49;16.10;;;13.80;;
57319;SDS011;43158;51.026;18.190;2022-11-14T10:46:08;16.00;;;14.00;;
57319;SDS011;43158;51.026;18.190;2022-11-14T10:48:43;16.90;;;15.10;;
57319;SDS011;43158;51.026;18.190;2022-11-14T10:51:32;15.20;;;13.70;;
57319;SDS011;43158;51.026;18.190;2022-11-14T10:56:55;15.00;;;13.30;;
57319;SDS011;43158;51.026;18.190;2022-11-14T10:59:22;13.30;;;11.90;;
57319;SDS011;43158;51.026;18.190;2022-11-14T11:01:55;13.50;;;11.90;;
57319;SDS011;43158;51.026;18.190;2022-11-14T11:09:32;14.30;;;12.90;;
57319;SDS011;43158;51.026;18.190;2022-11-14T11:18:01;14.80;;;12.80;;
57319;SDS011;43158;51.026;18.190;2022-11-14T11:20:30;14.90;;;13.30;;
57319;SDS011;43158;51.026;18.190;2022-11-14T11:23:14;15.90;;;14.40;;
57319;SDS011;43158;51.026;18.190;2022-11-14T11:25:43;13.10;;;11.90;;
57319;SDS011;43158;51.026;18.190;2022-11-14T11:28:14;15.10;;;13.60;;
57319;SDS011;43158;51.026;18.190;2022-11-14T11:30:55;15.90;;;14.10;;
57319;SDS011;43158;51.026;18.190;2022-11-14T11:33:23;16.10;;;14.60;;
57319;SDS011;43158;51.026;18.190;2022-11-14T11:35:52;17.30;;;15.60;;
57319;SDS011;43158;51.026;18.190;2022-11-14T11:38:23;17.10;;;15.00;;
57319;SDS011;43158;51.026;18.190;2022-11-14T11:40:55;17.00;;;15.30;;
57319;SDS011;43158;51.026;18.190;2022-11-14T11:46:28;18.10;;;16.20;;
57319;SDS011;43158;51.026;18.190;2022-11-14T11:49:02;18.50;;;16.80;;
57319;SDS011;43158;51.026;18.190;2022-11-14T11:52:00;18.90;;;17.00;;
57319;SDS011;43158;51.026;18.190;2022-11-14T11:54:57;18.40;;;16.70;;
57319;SDS011;43158;51.026;18.190;2022-11-14T11:57:42;20.30;;;18.30;;
57319;SDS011;43158;51.026;18.190;2022-11-14T12:00:16;21.60;;;19.40;;
57319;SDS011;43158;51.026;18.190;2022-11-14T12:02:45;22.70;;;20.50;;
57319;SDS011;43158;51.026;18.190;2022-11-14T12:07:49;23.70;;;21.30;;
57319;SDS011;43158;51.026;18.190;2022-11-14T12:10:35;21.50;;;19.20;;
57319;SDS011;43158;51.026;18.190;2022-11-14T12:13:11;22.40;;;20.30;;
57319;SDS011;43158;51.026;18.190;2022-11-14T12:24:48;23.20;;;20.90;;
57319;SDS011;43158;51.026;18.190;2022-11-14T12:30:32;24.10;;;21.80;;
57319;SDS011;43158;51.026;18.190;2022-11-14T12:33:03;25.20;;;22.70;;
57319;SDS011;43158;51.026;18.190;2022-11-14T12:35:35;23.50;;;21.20;;
57319;SDS011;43158;51.026;18.190;2022-11-14T12:38:14;22.80;;;20.50;;
57319;SDS011;43158;51.026;18.190;2022-11-14T12:40:48;23.70;;;21.20;;
57319;SDS011;43158;51.026;18.190;2022-11-14T12:43:36;22.70;;;20.40;;
57319;SDS011;43158;51.026;18.190;2022-11-14T12:46:03;23.80;;;21.50;;
57319;SDS011;43158;51.026;18.190;2022-11-14T12:48:45;23.80;;;21.70;;
57319;SDS011;43158;51.026;18.190;2022-11-14T12:53:51;22.70;;;20.30;;
57319;SDS011;43158;51.026;18.190;2022-11-14T12:56:40;22.50;;;20.30;;
57319;SDS011;43158;51.026;18.190;2022-11-14T12:59:19;21.40;;;19.20;;
57319;SDS011;43158;51.026;18.190;2022-11-14T13:02:12;21.50;;;19.40;;
57319;SDS011;43158;51.026;18.190;2022-11-14T13:13:19;21.90;;;19.80;;
57319;SDS011;43158;51.026;18.190;2022-11-14T13:16:04;23.00;;;20.80;;
57319;SDS011;43158;51.026;18.190;2022-11-14T13:18:50;22.90;;;20.70;;
57319;SDS011;43158;51.026;18.190;2022-11-14T13:21:37;21.30;;;19.20;;
57319;SDS011;43158;51.026;18.190;2022-11-14T13:24:14;21.80;;;19.70;;
57319;SDS011;43158;51.026;18.190;2022-11-14T13:26:42;20.10;;;18.10;;
57319;SDS011;43158;51.026;18.190;2022-11-14T13:34:28;20.00;;;18.20;;
57319;SDS011;43158;51.026;18.190;2022-11-14T13:37:07;20.50;;;18.60;;
57319;SDS011;43158;51.026;18.190;2022-11-14T13:46:07;18.30;;;16.60;;
57319;SDS011;43158;51.026;18.190;2022-11-14T13:48:32;20.40;;;18.40;;
57319;SDS011;43158;51.026;18.190;2022-11-14T13:51:08;21.30;;;19.30;;
57319;SDS011;43158;51.026;18.190;2022-11-14T13:53:36;21.50;;;19.30;;
57319;SDS011;43158;51.026;18.190;2022-11-14T13:56:07;20.10;;;18.20;;
57319;SDS011;43158;51.026;18.190;2022-11-14T14:01:33;17.90;;;16.30;;
57319;SDS011;43158;51.026;18.190;2022-11-14T14:04:19;21.60;;;19.70;;
57319;SDS011;43158;51.026;18.190;2022-11-14T14:15:29;21.70;;;19.60;;
57319;SDS011;43158;51.026;18.190;2022-11-14T14:32:18;21.00;;;19.20;;
57319;SDS011;43158;51.026;18.190;2022-11-14T14:34:45;21.70;;;19.50;;
57319;SDS011;43158;51.026;18.190;2022-11-14T14:37:19;21.30;;;19.20;;
57319;SDS011;43158;51.026;18.190;2022-11-14T14:39:59;31.50;;;25.80;;
57319;SDS011;43158;51.026;18.190;2022-11-14T14:42:38;24.50;;;22.00;;
57319;SDS011;43158;51.026;18.190;2022-11-14T14:45:14;22.40;;;20.30;;
57319;SDS011;43158;51.026;18.190;2022-11-14T14:47:43;22.30;;;20.00;;
57319;SDS011;43158;51.026;18.190;2022-11-14T14:50:36;22.60;;;20.10;;
57319;SDS011;43158;51.026;18.190;2022-11-14T14:53:18;21.60;;;19.30;;
57319;SDS011;43158;51.026;18.190;2022-11-14T14:55:58;46.30;;;34.00;;
57319;SDS011;43158;51.026;18.190;2022-11-14T14:58:28;22.20;;;19.60;;
57319;SDS011;43158;51.026;18.190;2022-11-14T15:01:00;271.50;;;169.00;;
57319;SDS011;43158;51.026;18.190;2022-11-14T15:03:49;36.60;;;29.50;;
57319;SDS011;43158;51.026;18.190;2022-11-14T15:09:00;34.80;;;28.50;;
57319;SDS011;43158;51.026;18.190;2022-11-14T15:11:33;25.10;;;22.30;;
57319;SDS011;43158;51.026;18.190;2022-11-14T15:14:00;28.00;;;22.70;;
57319;SDS011;43158;51.026;18.190;2022-11-14T15:16:27;64.80;;;40.90;;
57319;SDS011;43158;51.026;18.190;2022-11-14T15:18:55;37.40;;;29.20;;
57319;SDS011;43158;51.026;18.190;2022-11-14T15:21:23;40.40;;;31.90;;
57319;SDS011;43158;51.026;18.190;2022-11-14T15:23:57;32.10;;;27.00;;
57319;SDS011;43158;51.026;18.190;2022-11-14T15:26:42;27.80;;;24.30;;
57319;SDS011;43158;51.026;18.190;2022-11-14T15:29:15;27.30;;;24.20;;
57319;SDS011;43158;51.026;18.190;2022-11-14T15:31:44;25.20;;;22.50;;
57319;SDS011;43158;51.026;18.190;2022-11-14T15:34:28;24.40;;;22.00;;
57319;SDS011;43158;51.026;18.190;2022-11-14T15:39:35;30.70;;;27.40;;
57319;SDS011;43158;51.026;18.190;2022-11-14T15:42:17;31.90;;;26.60;;
57319;SDS011;43158;51.026;18.190;2022-11-14T15:44:46;32.90;;;27.70;;
57319;SDS011;43158;51.026;18.190;2022-11-14T15:47:56;31.40;;;27.90;;
57319;SDS011;43158;51.026;18.190;2022-11-14T15:50:18;30.50;;;26.20;;
57319;SDS011;43158;51.026;18.190;2022-11-14T15:52:48;32.60;;;27.00;;
57319;SDS011;43158;51.026;18.190;2022-11-14T15:55:18;30.50;;;27.20;;
57319;SDS011;43158;51.026;18.190;2022-11-14T15:57:46;32.40;;;26.40;;
57319;SDS011;43158;51.026;18.190;2022-11-14T16:00:16;33.60;;;30.00;;
57319;SDS011;43158;51.026;18.190;2022-11-14T16:05:15;33.40;;;28.50;;
57319;SDS011;43158;51.026;18.190;2022-11-14T16:07:42;36.90;;;32.40;;
57319;SDS011;43158;51.026;18.190;2022-11-14T16:10:13;36.90;;;30.50;;
57319;SDS011;43158;51.026;18.190;2022-11-14T16:12:57;39.00;;;34.70;;
57319;SDS011;43158;51.026;18.190;2022-11-14T16:15:23;45.70;;;37.30;;